Time,TemperatureF,DewpointF,PressureIn,WindDirection,WindDirectionDegrees,WindSpeedMPH,WindSpeedGustMPH,Humidity,HourlyPrecipIn,Conditions,Clouds,dailyrainin,SoftwareType,DateUTC
2013-06-29 00:04:00,62.0,62.0,29.58,WNW,292,1.0,3.0,100,0.20,,,0.01,Weather View 32 v70,2013-06-29 04:04:00,
2013-06-29 00:09:00,62.0,62.0,29.57,WNW,292,1.0,3.0,100,0.19,,,0.01,Weather View 32 v70,2013-06-29 04:09:00,
2013-06-29 00:14:00,62.0,62.0,29.58,WNW,292,2.0,3.0,100,0.09,,,0.01,Weather View 32 v70,2013-06-29 04:14:00,
2013-06-29 00:19:00,62.0,62.0,29.58,WNW,292,0.0,3.0,100,0.06,,,0.01,Weather View 32 v70,2013-06-29 04:19:00,
2013-06-29 00:29:00,62.0,62.0,29.57,WNW,292,0.0,2.0,100,0.01,,,0.01,Weather View 32 v70,2013-06-29 04:29:00,
2013-06-29 00:34:00,62.0,62.0,29.57,WNW,292,0.0,2.0,100,0.01,,,0.01,Weather View 32 v70,2013-06-29 04:34:00,
2013-06-29 00:42:00,62.0,62.0,29.57,WNW,292,0.0,2.0,100,0.01,,,0.01,Weather View 32 v70,2013-06-29 04:42:00,
2013-06-29 00:44:00,62.0,62.0,29.57,WNW,292,0.0,2.0,100,0.01,,,0.01,Weather View 32 v70,2013-06-29 04:44:00,
2013-06-29 00:54:00,62.0,62.0,29.57,WNW,292,0.0,2.0,100,0.01,,,0.01,Weather View 32 v70,2013-06-29 04:54:00,
2013-06-29 01:00:00,62.0,62.0,29.57,WNW,292,0.0,2.0,100,0.01,,,0.01,Weather View 32 v70,2013-06-29 05:00:00,
2013-06-29 01:09:00,62.0,62.0,29.57,WNW,292,0.0,2.0,100,0.00,,,0.01,Weather View 32 v70,2013-06-29 05:09:00,
2013-06-29 01:20:00,62.0,62.0,29.58,WNW,292,0.0,1.0,100,0.00,,,0.01,Weather View 32 v70,2013-06-29 05:20:00,
2013-06-29 01:29:00,62.0,62.0,29.58,WNW,292,0.0,1.0,100,0.00,,,0.01,Weather View 32 v70,2013-06-29 05:29:00,
2013-06-29 01:39:00,62.0,62.0,29.58,WNW,292,0.0,1.0,100,0.00,,,0.01,Weather View 32 v70,2013-06-29 05:39:00,
2013-06-29 01:44:00,62.0,62.0,29.57,WNW,292,0.0,1.0,100,0.00,,,0.01,Weather View 32 v70,2013-06-29 05:44:00,
2013-06-29 01:54:00,62.0,62.0,29.57,WNW,292,0.0,1.0,100,0.00,,,0.01,Weather View 32 v70,2013-06-29 05:54:00,
2013-06-29 02:04:00,62.0,62.0,29.57,WNW,292,0.0,1.0,100,0.00,,,0.01,Weather View 32 v70,2013-06-29 06:04:00,
2013-06-29 02:14:00,62.0,62.0,29.57,WNW,292,0.0,1.0,100,0.00,,,0.01,Weather View 32 v70,2013-06-29 06:14:00,
2013-06-29 02:24:00,62.0,62.0,29.56,WNW,292,0.0,1.0,100,0.00,,,0.01,Weather View 32 v70,2013-06-29 06:24:00,
2013-06-29 02:34:00,62.0,62.0,29.58,SSW,202,2.0,3.0,100,0.00,,,0.01,Weather View 32 v70,2013-06-29 06:34:00,
2013-06-29 02:43:00,63.0,63.0,29.56,SE,135,1.0,8.0,100,0.31,,,0.32,Weather View 32 v70,2013-06-29 06:43:00,
2013-06-29 02:49:00,63.0,63.0,29.55,South,180,0.0,8.0,100,0.42,,,0.43,Weather View 32 v70,2013-06-29 06:49:00,
2013-06-29 02:59:00,63.0,63.0,29.56,SW,225,1.0,8.0,100,0.42,,,0.43,Weather View 32 v70,2013-06-29 06:59:00,
2013-06-29 03:04:00,63.0,63.0,29.56,WSW,248,0.0,8.0,100,0.42,,,0.43,Weather View 32 v70,2013-06-29 07:04:00,
2013-06-29 03:14:00,63.0,63.0,29.56,SSE,158,0.0,8.0,100,0.42,,,0.43,Weather View 32 v70,2013-06-29 07:14:00,
2013-06-29 03:20:00,63.0,63.0,29.56,SSE,158,0.0,8.0,100,0.42,,,0.43,Weather View 32 v70,2013-06-29 07:20:00,
2013-06-29 03:29:00,63.0,63.0,29.56,SSW,202,0.0,8.0,100,0.42,,,0.43,Weather View 32 v70,2013-06-29 07:29:00,
2013-06-29 03:40:00,64.0,64.0,29.56,SSW,202,1.0,5.0,100,0.11,,,0.43,Weather View 32 v70,2013-06-29 07:40:00,
2013-06-29 03:49:00,64.0,64.0,29.55,SW,225,1.0,3.0,100,0.00,,,0.43,Weather View 32 v70,2013-06-29 07:49:00,
2013-06-29 03:54:00,64.0,64.0,29.56,SSE,158,1.0,3.0,100,0.00,,,0.43,Weather View 32 v70,2013-06-29 07:54:00,
2013-06-29 04:04:00,64.0,64.0,29.56,SSE,158,2.0,4.0,100,0.00,,,0.43,Weather View 32 v70,2013-06-29 08:04:00,
2013-06-29 04:14:00,64.0,64.0,29.57,South,180,3.0,5.0,100,0.00,,,0.43,Weather View 32 v70,2013-06-29 08:14:00,
2013-06-29 04:24:00,64.0,64.0,29.57,South,180,2.0,5.0,100,0.01,,,0.44,Weather View 32 v70,2013-06-29 08:24:00,
2013-06-29 04:34:00,64.0,64.0,29.56,West,270,1.0,5.0,100,0.01,,,0.44,Weather View 32 v70,2013-06-29 08:34:00,
2013-06-29 04:44:00,64.0,64.0,29.56,SSE,158,3.0,5.0,100,0.01,,,0.44,Weather View 32 v70,2013-06-29 08:44:00,
2013-06-29 04:49:00,64.0,64.0,29.57,South,180,3.0,5.0,100,0.01,,,0.44,Weather View 32 v70,2013-06-29 08:49:00,
2013-06-29 04:54:00,64.0,64.0,29.57,SSE,158,3.0,5.0,100,0.01,,,0.44,Weather View 32 v70,2013-06-29 08:54:00,
2013-06-29 05:04:00,64.0,64.0,29.57,South,180,1.0,5.0,100,0.01,,,0.44,Weather View 32 v70,2013-06-29 09:04:00,
2013-06-29 05:09:00,64.0,64.0,29.56,South,180,0.0,5.0,100,0.01,,,0.44,Weather View 32 v70,2013-06-29 09:09:00,
2013-06-29 05:19:00,64.0,64.0,29.56,WNW,292,1.0,5.0,100,0.01,,,0.44,Weather View 32 v70,2013-06-29 09:19:00,
2013-06-29 05:30:00,64.0,64.0,29.58,SW,225,1.0,5.0,100,0.00,,,0.44,Weather View 32 v70,2013-06-29 09:30:00,
2013-06-29 05:39:00,64.0,64.0,29.58,SW,225,0.0,5.0,100,0.00,,,0.44,Weather View 32 v70,2013-06-29 09:39:00,
2013-06-29 05:45:00,64.0,64.0,29.58,SW,225,0.0,5.0,100,0.00,,,0.44,Weather View 32 v70,2013-06-29 09:45:00,
2013-06-29 05:54:00,64.0,64.0,29.58,SW,225,0.0,4.0,100,0.00,,,0.44,Weather View 32 v70,2013-06-29 09:54:00,
2013-06-29 05:59:00,64.0,64.0,29.58,SSE,158,0.0,4.0,100,0.00,,,0.44,Weather View 32 v70,2013-06-29 09:59:00,
2013-06-29 06:09:00,65.0,65.0,29.58,SSW,202,0.0,3.0,100,0.00,,,0.44,Weather View 32 v70,2013-06-29 10:09:00,
2013-06-29 06:14:00,65.0,65.0,29.58,SSE,158,0.0,3.0,100,0.00,,,0.44,Weather View 32 v70,2013-06-29 10:14:00,
2013-06-29 06:24:00,65.0,65.0,29.59,SSE,158,1.0,2.0,100,0.00,,,0.44,Weather View 32 v70,2013-06-29 10:24:00,
2013-06-29 06:34:00,64.0,64.0,29.58,SSE,158,0.0,2.0,100,0.00,,,0.44,Weather View 32 v70,2013-06-29 10:34:00,
2013-06-29 06:39:00,64.0,64.0,29.58,SSE,158,0.0,2.0,100,0.00,,,0.44,Weather View 32 v70,2013-06-29 10:39:00,
2013-06-29 06:45:00,64.0,64.0,29.58,SSE,158,0.0,2.0,100,0.00,,,0.44,Weather View 32 v70,2013-06-29 10:45:00,
2013-06-29 06:54:00,64.0,64.0,29.59,SSE,158,0.0,2.0,100,0.00,,,0.44,Weather View 32 v70,2013-06-29 10:54:00,
2013-06-29 07:04:00,64.0,64.0,29.58,SSE,158,0.0,2.0,100,0.00,,,0.44,Weather View 32 v70,2013-06-29 11:04:00,
2013-06-29 07:09:00,65.0,65.0,29.58,SSE,158,0.0,2.0,100,0.00,,,0.44,Weather View 32 v70,2013-06-29 11:09:00,
2013-06-29 07:14:00,64.0,64.0,29.59,SSE,158,0.0,2.0,100,0.00,,,0.44,Weather View 32 v70,2013-06-29 11:14:00,
2013-06-29 07:19:00,64.0,64.0,29.59,SSE,158,0.0,2.0,100,0.00,,,0.44,Weather View 32 v70,2013-06-29 11:19:00,
2013-06-29 07:29:00,64.0,64.0,29.59,SSE,158,0.0,1.0,100,0.00,,,0.44,Weather View 32 v70,2013-06-29 11:29:00,
2013-06-29 07:39:00,65.0,65.0,29.59,SSE,158,0.0,1.0,100,0.00,,,0.44,Weather View 32 v70,2013-06-29 11:39:00,
2013-06-29 07:44:00,64.0,64.0,29.59,SSE,158,0.0,1.0,100,0.00,,,0.44,Weather View 32 v70,2013-06-29 11:44:00,
2013-06-29 07:54:00,65.0,65.0,29.59,SSE,158,0.0,1.0,100,0.00,,,0.44,Weather View 32 v70,2013-06-29 11:54:00,
2013-06-29 08:04:00,65.0,65.0,29.60,SSE,158,0.0,1.0,100,0.00,,,0.44,Weather View 32 v70,2013-06-29 12:04:00,
2013-06-29 08:15:00,65.0,65.0,29.60,SSE,158,0.0,0.0,100,0.00,,,0.44,Weather View 32 v70,2013-06-29 12:15:00,
2013-06-29 08:24:00,65.0,65.0,29.60,SSE,158,0.0,0.0,100,0.00,,,0.44,Weather View 32 v70,2013-06-29 12:24:00,
2013-06-29 08:29:00,65.0,65.0,29.60,SSE,158,0.0,0.0,100,0.00,,,0.44,Weather View 32 v70,2013-06-29 12:29:00,
2013-06-29 08:40:00,65.0,65.0,29.60,SSE,158,0.0,0.0,100,0.00,,,0.44,Weather View 32 v70,2013-06-29 12:40:00,
2013-06-29 08:47:00,66.0,66.0,29.60,SSE,158,0.0,0.0,100,0.00,,,0.44,Weather View 32 v70,2013-06-29 12:47:00,
2013-06-29 08:54:00,66.0,66.0,29.60,SSE,158,0.0,0.0,100,0.00,,,0.44,Weather View 32 v70,2013-06-29 12:54:00,
2013-06-29 09:04:00,66.0,66.0,29.60,SSE,158,0.0,1.0,100,0.00,,,0.44,Weather View 32 v70,2013-06-29 13:04:00,
2013-06-29 09:09:00,67.0,67.0,29.60,SSE,158,0.0,1.0,100,0.00,,,0.44,Weather View 32 v70,2013-06-29 13:09:00,
2013-06-29 09:15:00,67.0,67.0,29.60,SSE,158,0.0,2.0,100,0.00,,,0.44,Weather View 32 v70,2013-06-29 13:15:00,
2013-06-29 09:19:00,67.0,67.0,29.60,SSE,158,0.0,2.0,100,0.00,,,0.44,Weather View 32 v70,2013-06-29 13:19:00,
2013-06-29 09:29:00,68.0,68.0,29.59,SSE,158,1.0,2.0,100,0.00,,,0.44,Weather View 32 v70,2013-06-29 13:29:00,
2013-06-29 09:34:00,69.0,69.0,29.59,SSE,158,0.0,2.0,100,0.00,,,0.44,Weather View 32 v70,2013-06-29 13:34:00,
2013-06-29 09:44:00,69.0,69.0,29.59,SSE,158,0.0,2.0,100,0.00,,,0.44,Weather View 32 v70,2013-06-29 13:44:00,
2013-06-29 09:54:00,69.0,69.0,29.59,SSE,158,0.0,2.0,100,0.00,,,0.44,Weather View 32 v70,2013-06-29 13:54:00,
2013-06-29 09:59:00,69.0,69.0,29.59,SSE,158,0.0,2.0,100,0.00,,,0.44,Weather View 32 v70,2013-06-29 13:59:00,
2013-06-29 10:09:00,70.0,70.0,29.60,SSE,158,0.0,2.0,100,0.00,,,0.44,Weather View 32 v70,2013-06-29 14:09:00,
2013-06-29 10:19:00,69.0,69.0,29.60,SSE,158,1.0,2.0,100,0.00,,,0.44,Weather View 32 v70,2013-06-29 14:19:00,
2013-06-29 10:24:00,70.0,70.0,29.59,SSE,158,2.0,3.0,100,0.00,,,0.44,Weather View 32 v70,2013-06-29 14:24:00,
2013-06-29 10:34:00,70.0,70.0,29.60,SE,135,1.0,4.0,100,0.00,,,0.44,Weather View 32 v70,2013-06-29 14:34:00,
2013-06-29 10:44:00,71.0,71.0,29.60,SSE,158,1.0,4.0,100,0.00,,,0.44,Weather View 32 v70,2013-06-29 14:44:00,
2013-06-29 10:49:00,71.0,71.0,29.59,SSW,202,1.0,4.0,100,0.00,,,0.44,Weather View 32 v70,2013-06-29 14:49:00,
2013-06-29 11:00:00,71.0,71.0,29.60,SSE,158,1.0,4.0,100,0.00,,,0.44,Weather View 32 v70,2013-06-29 15:00:00,
2013-06-29 11:09:00,72.0,72.0,29.59,SW,225,1.0,4.0,100,0.00,,,0.44,Weather View 32 v70,2013-06-29 15:09:00,
2013-06-29 11:14:00,72.0,72.0,29.60,South,180,1.0,4.0,100,0.00,,,0.44,Weather View 32 v70,2013-06-29 15:14:00,
2013-06-29 11:19:00,72.0,72.0,29.59,SSE,158,0.0,4.0,100,0.00,,,0.44,Weather View 32 v70,2013-06-29 15:19:00,
2013-06-29 11:29:00,72.0,72.0,29.60,South,180,1.0,4.0,100,0.00,,,0.44,Weather View 32 v70,2013-06-29 15:29:00,
2013-06-29 11:39:00,73.0,73.0,29.60,SSE,158,0.0,4.0,100,0.00,,,0.44,Weather View 32 v70,2013-06-29 15:39:00,
2013-06-29 11:44:00,72.0,72.0,29.60,South,180,0.0,3.0,100,0.00,,,0.44,Weather View 32 v70,2013-06-29 15:44:00,
2013-06-29 11:54:00,72.0,72.0,29.60,WSW,248,2.0,5.0,100,0.00,,,0.44,Weather View 32 v70,2013-06-29 15:54:00,
2013-06-29 11:59:00,73.0,73.0,29.60,South,180,1.0,5.0,100,0.00,,,0.44,Weather View 32 v70,2013-06-29 15:59:00,
2013-06-29 12:09:00,73.0,73.0,29.60,South,180,3.0,6.0,100,0.00,,,0.44,Weather View 32 v70,2013-06-29 16:09:00,
2013-06-29 12:19:00,73.0,73.0,29.59,SE,135,3.0,8.0,100,0.00,,,0.44,Weather View 32 v70,2013-06-29 16:19:00,
2013-06-29 12:24:00,74.0,74.0,29.60,West,270,3.0,8.0,100,0.00,,,0.44,Weather View 32 v70,2013-06-29 16:24:00,
2013-06-29 12:29:00,74.0,73.7,29.60,SSE,158,4.0,8.0,99,0.00,,,0.44,Weather View 32 v70,2013-06-29 16:29:00,
2013-06-29 12:39:00,76.0,73.2,29.59,SSE,158,4.0,10.0,91,0.00,,,0.44,Weather View 32 v70,2013-06-29 16:39:00,
2013-06-29 12:44:00,76.0,72.5,29.58,SSW,202,6.0,10.0,89,0.00,,,0.44,Weather View 32 v70,2013-06-29 16:44:00,
2013-06-29 12:49:00,76.0,71.1,29.59,SW,225,7.0,10.0,85,0.00,,,0.44,Weather View 32 v70,2013-06-29 16:49:00,
2013-06-29 12:59:00,77.0,71.1,29.59,WSW,248,3.0,12.0,82,0.00,,,0.44,Weather View 32 v70,2013-06-29 16:59:00,
2013-06-29 13:09:00,77.0,71.8,29.59,SSW,202,4.0,12.0,84,0.00,,,0.44,Weather View 32 v70,2013-06-29 17:09:00,
2013-06-29 13:19:00,78.0,71.7,29.59,South,180,4.0,12.0,81,0.00,,,0.44,Weather View 32 v70,2013-06-29 17:19:00,
2013-06-29 13:24:00,79.0,72.3,29.59,SSW,202,6.0,12.0,80,0.00,,,0.44,Weather View 32 v70,2013-06-29 17:24:00,
2013-06-29 13:34:00,80.0,71.3,29.59,South,180,3.0,12.0,75,0.00,,,0.44,Weather View 32 v70,2013-06-29 17:34:00,
2013-06-29 13:39:00,80.0,71.7,29.59,South,180,3.0,12.0,76,0.00,,,0.44,Weather View 32 v70,2013-06-29 17:39:00,
2013-06-29 13:49:00,80.0,71.3,29.58,WSW,248,3.0,12.0,75,0.00,,,0.44,Weather View 32 v70,2013-06-29 17:49:00,
2013-06-29 13:59:00,80.0,71.3,29.58,SSE,158,3.0,12.0,75,0.00,,,0.44,Weather View 32 v70,2013-06-29 17:59:00,
2013-06-29 14:04:00,80.0,70.9,29.58,West,270,3.0,12.0,74,0.00,,,0.44,Weather View 32 v70,2013-06-29 18:04:00,
2013-06-29 14:14:00,80.0,70.9,29.58,West,270,3.0,11.0,74,0.00,,,0.44,Weather View 32 v70,2013-06-29 18:14:00,
2013-06-29 14:19:00,81.0,71.1,29.58,SE,135,2.0,11.0,72,0.00,,,0.44,Weather View 32 v70,2013-06-29 18:19:00,
2013-06-29 14:24:00,81.0,71.1,29.58,SE,135,2.0,11.0,72,0.00,,,0.44,Weather View 32 v70,2013-06-29 18:24:00,
2013-06-29 14:34:00,82.0,70.3,29.58,SSW,202,2.0,11.0,68,0.00,,,0.44,Weather View 32 v70,2013-06-29 18:34:00,
2013-06-29 14:44:00,81.0,70.7,29.58,SE,135,8.0,11.0,71,0.00,,,0.44,Weather View 32 v70,2013-06-29 18:44:00,
2013-06-29 14:49:00,81.0,70.2,29.58,SSE,158,3.0,11.0,70,0.00,,,0.44,Weather View 32 v70,2013-06-29 18:49:00,
2013-06-29 14:54:00,81.0,70.7,29.58,SSE,158,3.0,11.0,71,0.00,,,0.44,Weather View 32 v70,2013-06-29 18:54:00,
2013-06-29 15:04:00,81.0,70.7,29.59,SSE,158,2.0,13.0,71,0.00,,,0.44,Weather View 32 v70,2013-06-29 19:04:00,
2013-06-29 15:09:00,81.0,70.2,29.59,SW,225,3.0,14.0,70,0.00,,,0.44,Weather View 32 v70,2013-06-29 19:09:00,
2013-06-29 15:14:00,81.0,70.2,29.58,South,180,3.0,14.0,70,0.00,,,0.44,Weather View 32 v70,2013-06-29 19:14:00,
2013-06-29 15:24:00,81.0,71.1,29.58,South,180,3.0,14.0,72,0.00,,,0.44,Weather View 32 v70,2013-06-29 19:24:00,
2013-06-29 15:29:00,81.0,70.2,29.59,SSE,158,4.0,14.0,70,0.00,,,0.44,Weather View 32 v70,2013-06-29 19:29:00,
2013-06-29 15:34:00,81.0,70.2,29.59,SSW,202,4.0,14.0,70,0.00,,,0.44,Weather View 32 v70,2013-06-29 19:34:00,
2013-06-29 15:44:00,81.0,69.4,29.58,WNW,292,3.0,14.0,68,0.00,,,0.44,Weather View 32 v70,2013-06-29 19:44:00,
2013-06-29 15:49:00,81.0,69.8,29.57,SW,225,4.0,14.0,69,0.00,,,0.44,Weather View 32 v70,2013-06-29 19:49:00,
2013-06-29 15:54:00,82.0,70.8,29.58,WSW,248,1.0,14.0,69,0.00,,,0.44,Weather View 32 v70,2013-06-29 19:54:00,
2013-06-29 16:04:00,81.0,69.8,29.59,South,180,2.0,14.0,69,0.00,,,0.44,Weather View 32 v70,2013-06-29 20:04:00,
2013-06-29 16:15:00,82.0,70.8,29.58,SW,225,6.0,13.0,69,0.00,,,0.44,Weather View 32 v70,2013-06-29 20:15:00,
2013-06-29 16:24:00,81.0,69.0,29.59,WNW,292,3.0,11.0,67,0.00,,,0.44,Weather View 32 v70,2013-06-29 20:24:00,
2013-06-29 16:34:00,81.0,69.4,29.59,SW,225,2.0,11.0,68,0.00,,,0.44,Weather View 32 v70,2013-06-29 20:34:00,
2013-06-29 16:44:00,80.0,68.9,29.59,West,270,3.0,11.0,69,0.00,,,0.44,Weather View 32 v70,2013-06-29 20:44:00,
2013-06-29 16:49:00,81.0,69.8,29.59,SE,135,3.0,11.0,69,0.00,,,0.44,Weather View 32 v70,2013-06-29 20:49:00,
2013-06-29 17:00:00,81.0,69.8,29.59,SSW,202,2.0,11.0,69,0.00,,,0.44,Weather View 32 v70,2013-06-29 21:00:00,
2013-06-29 17:09:00,81.0,69.8,29.60,SW,225,2.0,11.0,69,0.00,,,0.44,Weather View 32 v70,2013-06-29 21:09:00,
2013-06-29 17:19:00,82.0,69.5,29.59,SSW,202,3.0,12.0,66,0.00,,,0.44,Weather View 32 v70,2013-06-29 21:19:00,
2013-06-29 17:24:00,82.0,69.0,29.59,WSW,248,3.0,12.0,65,0.00,,,0.44,Weather View 32 v70,2013-06-29 21:24:00,
2013-06-29 17:34:00,83.0,70.0,29.60,SSE,158,3.0,12.0,65,0.00,,,0.44,Weather View 32 v70,2013-06-29 21:34:00,
2013-06-29 17:39:00,83.0,70.0,29.60,West,270,2.0,12.0,65,0.00,,,0.44,Weather View 32 v70,2013-06-29 21:39:00,
2013-06-29 17:49:00,81.0,69.0,29.60,South,180,5.0,12.0,67,0.00,,,0.44,Weather View 32 v70,2013-06-29 21:49:00,
2013-06-29 17:59:00,80.0,68.9,29.60,SW,225,2.0,12.0,69,0.00,,,0.44,Weather View 32 v70,2013-06-29 21:59:00,
2013-06-29 18:04:00,81.0,69.4,29.60,West,270,0.0,12.0,68,0.00,,,0.44,Weather View 32 v70,2013-06-29 22:04:00,
2013-06-29 18:09:00,82.0,71.2,29.61,South,180,1.0,12.0,70,0.00,,,0.44,Weather View 32 v70,2013-06-29 22:09:00,
2013-06-29 18:19:00,82.0,70.3,29.61,SSW,202,1.0,11.0,68,0.00,,,0.44,Weather View 32 v70,2013-06-29 22:19:00,
2013-06-29 18:24:00,82.0,70.8,29.60,SE,135,1.0,8.0,69,0.00,,,0.44,Weather View 32 v70,2013-06-29 22:24:00,
2013-06-29 18:30:00,81.0,69.8,29.61,SSW,202,1.0,6.0,69,0.00,,,0.44,Weather View 32 v70,2013-06-29 22:30:00,
2013-06-29 18:39:00,80.0,70.1,29.61,South,180,1.0,6.0,72,0.00,,,0.44,Weather View 32 v70,2013-06-29 22:39:00,
2013-06-29 18:49:00,79.0,69.6,29.62,SE,135,3.0,6.0,73,0.00,,,0.44,Weather View 32 v70,2013-06-29 22:49:00,
2013-06-29 18:54:00,79.0,69.6,29.62,West,270,1.0,6.0,73,0.00,,,0.44,Weather View 32 v70,2013-06-29 22:54:00,
2013-06-29 19:04:00,78.0,68.2,29.62,SE,135,2.0,6.0,72,0.00,,,0.44,Weather View 32 v70,2013-06-29 23:04:00,
2013-06-29 19:09:00,78.0,69.0,29.62,WSW,248,2.0,6.0,74,0.00,,,0.44,Weather View 32 v70,2013-06-29 23:09:00,
2013-06-29 19:14:00,78.0,69.4,29.62,South,180,3.0,6.0,75,0.00,,,0.44,Weather View 32 v70,2013-06-29 23:14:00,
2013-06-29 19:24:00,77.0,69.6,29.62,SSE,158,2.0,6.0,78,0.00,,,0.44,Weather View 32 v70,2013-06-29 23:24:00,
2013-06-29 19:34:00,76.0,68.6,29.63,SSW,202,3.0,6.0,78,0.00,,,0.44,Weather View 32 v70,2013-06-29 23:34:00,
2013-06-29 19:39:00,76.0,69.0,29.63,SW,225,1.0,6.0,79,0.00,,,0.44,Weather View 32 v70,2013-06-29 23:39:00,
2013-06-29 19:49:00,75.0,69.5,29.64,SW,225,1.0,6.0,83,0.00,,,0.44,Weather View 32 v70,2013-06-29 23:49:00,
2013-06-29 19:54:00,75.0,69.8,29.63,South,180,1.0,6.0,84,0.00,,,0.44,Weather View 32 v70,2013-06-29 23:54:00,
2013-06-29 20:04:00,74.0,69.5,29.64,South,180,1.0,6.0,86,0.00,,,0.44,Weather View 32 v70,2013-06-30 00:04:00,
2013-06-29 20:14:00,73.0,69.6,29.64,South,180,0.0,6.0,89,0.00,,,0.44,Weather View 32 v70,2013-06-30 00:14:00,
2013-06-29 20:24:00,72.0,69.5,29.64,SSW,202,1.0,6.0,92,0.00,,,0.44,Weather View 32 v70,2013-06-30 00:24:00,
2013-06-29 20:34:00,71.0,69.2,29.65,SE,135,1.0,3.0,94,0.00,,,0.44,Weather View 32 v70,2013-06-30 00:34:00,
2013-06-29 20:39:00,71.0,69.2,29.65,SW,225,2.0,3.0,94,0.00,,,0.44,Weather View 32 v70,2013-06-30 00:39:00,
2013-06-29 20:44:00,71.0,69.5,29.65,SSW,202,1.0,3.0,95,0.00,,,0.44,Weather View 32 v70,2013-06-30 00:44:00,
2013-06-29 20:54:00,71.0,69.5,29.65,SSE,158,1.0,3.0,95,0.00,,,0.44,Weather View 32 v70,2013-06-30 00:54:00,
2013-06-29 21:00:00,71.0,69.5,29.65,SE,135,1.0,3.0,95,0.00,,,0.44,Weather View 32 v70,2013-06-30 01:00:00,
2013-06-29 21:09:00,71.0,69.8,29.66,SSW,202,0.0,3.0,96,0.00,,,0.44,Weather View 32 v70,2013-06-30 01:09:00,
2013-06-29 21:19:00,71.0,69.5,29.68,WSW,248,0.0,3.0,95,0.00,,,0.44,Weather View 32 v70,2013-06-30 01:19:00,
2013-06-29 21:29:00,71.0,69.8,29.68,South,180,1.0,3.0,96,0.00,,,0.44,Weather View 32 v70,2013-06-30 01:29:00,
2013-06-29 21:34:00,70.0,68.8,29.68,South,180,1.0,3.0,96,0.00,,,0.44,Weather View 32 v70,2013-06-30 01:34:00,
2013-06-29 21:44:00,70.0,69.4,29.69,WNW,292,1.0,3.0,98,0.00,,,0.44,Weather View 32 v70,2013-06-30 01:44:00,
2013-06-29 21:49:00,69.0,68.7,29.69,West,270,1.0,5.0,99,0.00,,,0.44,Weather View 32 v70,2013-06-30 01:49:00,
2013-06-29 21:59:00,69.0,69.0,29.70,WNW,292,1.0,5.0,100,0.00,,,0.44,Weather View 32 v70,2013-06-30 01:59:00,
2013-06-29 22:09:00,69.0,69.0,29.69,West,270,3.0,6.0,100,0.00,,,0.44,Weather View 32 v70,2013-06-30 02:09:00,
2013-06-29 22:20:00,70.0,70.0,29.70,SW,225,3.0,6.0,100,0.00,,,0.44,Weather View 32 v70,2013-06-30 02:20:00,
2013-06-29 22:29:00,70.0,70.0,29.69,SW,225,1.0,6.0,100,0.00,,,0.44,Weather View 32 v70,2013-06-30 02:29:00,
2013-06-29 22:34:00,70.0,70.0,29.69,South,180,1.0,6.0,100,0.00,,,0.44,Weather View 32 v70,2013-06-30 02:34:00,
2013-06-29 22:44:00,70.0,70.0,29.70,South,180,3.0,6.0,100,0.00,,,0.44,Weather View 32 v70,2013-06-30 02:44:00,
2013-06-29 22:49:00,69.0,69.0,29.70,SSW,202,2.0,6.0,100,0.00,,,0.44,Weather View 32 v70,2013-06-30 02:49:00,
2013-06-29 22:55:00,70.0,70.0,29.70,SSE,158,3.0,6.0,100,0.00,,,0.44,Weather View 32 v70,2013-06-30 02:55:00,
2013-06-29 23:00:00,70.0,70.0,29.70,South,180,4.0,6.0,100,0.00,,,0.44,Weather View 32 v70,2013-06-30 03:00:00,
2013-06-29 23:09:00,70.0,70.0,29.71,SSE,158,3.0,6.0,100,0.00,,,0.44,Weather View 32 v70,2013-06-30 03:09:00,
2013-06-29 23:14:00,70.0,70.0,29.71,South,180,1.0,6.0,100,0.00,,,0.44,Weather View 32 v70,2013-06-30 03:14:00,
2013-06-29 23:19:00,69.0,69.0,29.71,South,180,3.0,6.0,100,0.00,,,0.44,Weather View 32 v70,2013-06-30 03:19:00,
2013-06-29 23:29:00,69.0,69.0,29.72,SE,135,4.0,6.0,100,0.00,,,0.44,Weather View 32 v70,2013-06-30 03:29:00,
2013-06-29 23:35:00,70.0,70.0,29.72,SW,225,2.0,6.0,100,0.00,,,0.44,Weather View 32 v70,2013-06-30 03:35:00,